Time;durP1;ratioP1;P1;durP2;ratioP2;P2;SDS_P1;SDS_P2;PMS_P1;PMS_P2;Temp;Humidity;BMP_temperature;BMP_pressure;BME280_temperature;BME280_humidity;BME280_pressure;Samples;Min_cycle;Max_cycle;Signal;HPM_P1;HPM_P2
2023/12/28 00:00:43;;;;;;;4.17;1.30;;;7.50;99.90;;;;;;5045378;28;20213;-94
2023/12/28 00:03:09;;;;;;;3.50;1.60;;;7.50;99.90;;;;;;5055776;28;20197;-95
2023/12/28 00:05:35;;;;;;;2.00;1.10;;;7.50;99.90;;;;;;5052903;28;20182;-91
2023/12/28 00:08:01;;;;;;;2.70;1.40;;;7.50;99.90;;;;;;5053160;28;20243;-93
2023/12/28 00:10:27;;;;;;;4.47;1.23;;;7.50;99.90;;;;;;5050702;28;20277;-92
2023/12/28 00:13:05;;;;;;;1.70;1.00;;;7.60;99.90;;;;;;5055713;28;20201;-90
2023/12/28 00:15:31;;;;;;;2.63;1.20;;;7.50;99.90;;;;;;5055093;28;20185;-92
2023/12/28 00:17:57;;;;;;;5.63;1.20;;;7.60;99.90;;;;;;5055170;28;20670;-93
2023/12/28 00:20:23;;;;;;;2.23;1.10;;;7.60;99.90;;;;;;5051579;28;20220;-94
2023/12/28 00:22:51;;;;;;;2.00;1.30;;;7.60;99.90;;;;;;5482122;22;20731;-83
2023/12/28 00:25:16;;;;;;;1.90;1.07;;;7.60;99.90;;;;;;4993751;28;20194;-85
2023/12/28 00:27:42;;;;;;;1.83;1.20;;;7.50;99.90;;;;;;4994912;28;20176;-84
2023/12/28 00:30:08;;;;;;;3.00;1.07;;;7.50;99.90;;;;;;4994792;28;20556;-86
2023/12/28 00:32:34;;;;;;;3.77;1.30;;;7.60;99.90;;;;;;5003159;28;20545;-85
2023/12/28 00:35:00;;;;;;;3.73;1.13;;;7.60;99.90;;;;;;4993548;28;20188;-84
2023/12/28 00:37:26;;;;;;;2.80;1.33;;;7.70;99.90;;;;;;5001369;28;20191;-83
2023/12/28 00:39:51;;;;;;;1.17;1.00;;;7.70;99.90;;;;;;5003394;28;20186;-85
2023/12/28 00:42:19;;;;;;;2.77;1.40;;;7.70;99.90;;;;;;4993757;28;20226;-82
2023/12/28 00:44:45;;;;;;;1.77;1.10;;;7.80;99.90;;;;;;4993554;28;20184;-84
2023/12/28 00:47:11;;;;;;;2.00;1.33;;;7.90;99.90;;;;;;5008640;28;20195;-84
2023/12/28 00:49:37;;;;;;;4.03;1.50;;;7.90;99.90;;;;;;5001184;28;20580;-86
2023/12/28 00:52:03;;;;;;;2.53;1.50;;;7.90;99.90;;;;;;4995216;28;20254;-83
2023/12/28 00:54:29;;;;;;;4.13;1.30;;;7.90;99.90;;;;;;5007034;28;20191;-86
2023/12/28 00:56:54;;;;;;;3.37;1.20;;;7.90;99.90;;;;;;4995654;28;20274;-83
2023/12/28 00:59:20;;;;;;;2.83;1.47;;;7.90;99.90;;;;;;4994953;28;20507;-84
2023/12/28 01:01:46;;;;;;;2.50;1.20;;;8.00;99.90;;;;;;5010285;28;20254;-83
2023/12/28 01:04:12;;;;;;;2.17;1.03;;;8.00;99.90;;;;;;5005161;28;20266;-84
2023/12/28 01:06:37;;;;;;;2.23;1.00;;;8.00;99.90;;;;;;4997451;28;20596;-84
2023/12/28 01:09:05;;;;;;;4.90;1.40;;;8.00;99.90;;;;;;5012564;28;20527;-83
2023/12/28 01:11:31;;;;;;;2.53;1.43;;;8.00;99.90;;;;;;4998025;28;20223;-84
2023/12/28 01:13:59;;;;;;;3.03;1.20;;;8.00;99.90;;;;;;4993360;28;20539;-84
2023/12/28 01:16:25;;;;;;;3.23;1.47;;;8.10;99.90;;;;;;5003973;28;20516;-83
2023/12/28 01:18:51;;;;;;;3.40;1.23;;;8.10;99.90;;;;;;4998342;28;20178;-84
2023/12/28 01:21:17;;;;;;;4.07;1.30;;;8.10;99.90;;;;;;4993252;28;20218;-81
2023/12/28 01:23:43;;;;;;;3.43;1.20;;;8.00;99.90;;;;;;5007966;28;20226;-83
2023/12/28 01:26:15;;;;;;;3.37;1.30;;;8.00;99.90;;;;;;4994701;28;20176;-83
2023/12/28 01:28:41;;;;;;;3.67;1.40;;;8.00;99.90;;;;;;4993388;28;20187;-83
2023/12/28 01:31:06;;;;;;;2.43;1.40;;;8.10;99.90;;;;;;4994680;28;20516;-84
2023/12/28 01:33:32;;;;;;;1.87;1.10;;;8.10;99.90;;;;;;5016623;28;20564;-83
2023/12/28 01:35:58;;;;;;;2.70;1.30;;;8.10;99.90;;;;;;5011818;28;20622;-84
2023/12/28 01:38:24;;;;;;;7.97;1.30;;;8.10;99.90;;;;;;4998771;28;20209;-83
2023/12/28 01:40:50;;;;;;;1.38;1.00;;;8.20;99.90;;;;;;4995666;28;20215;-85
2023/12/28 01:43:15;;;;;;;1.80;1.10;;;8.10;99.90;;;;;;4993136;28;20180;-85
2023/12/28 01:45:41;;;;;;;1.27;1.00;;;8.10;99.90;;;;;;4993278;28;20191;-83
2023/12/28 01:48:08;;;;;;;2.37;1.20;;;8.10;99.90;;;;;;5009389;28;20283;-84
2023/12/28 01:50:36;;;;;;;2.70;1.23;;;8.10;99.90;;;;;;4993090;28;20184;-83
2023/12/28 01:53:03;;;;;;;2.42;1.20;;;8.10;99.90;;;;;;5000967;28;20222;-83
2023/12/28 01:55:30;;;;;;;4.73;1.20;;;8.00;99.90;;;;;;4995181;28;20714;-83
2023/12/28 01:57:57;;;;;;;2.33;1.20;;;8.00;99.90;;;;;;4996837;28;20524;-85
2023/12/28 02:00:24;;;;;;;2.57;1.30;;;7.90;99.90;;;;;;5001356;28;20179;-85
2023/12/28 02:02:51;;;;;;;2.28;1.35;;;8.00;99.90;;;;;;5000429;28;20247;-83
2023/12/28 02:05:17;;;;;;;2.87;1.10;;;8.00;99.90;;;;;;5008680;28;20187;-83
2023/12/28 02:07:43;;;;;;;1.90;1.07;;;8.00;99.90;;;;;;5031132;28;20349;-83
2023/12/28 02:10:09;;;;;;;2.80;1.43;;;8.00;99.90;;;;;;4996416;28;20645;-84
2023/12/28 02:12:35;;;;;;;2.23;1.30;;;8.00;99.90;;;;;;4997901;28;20645;-84
2023/12/28 02:15:01;;;;;;;2.47;1.50;;;8.00;99.90;;;;;;5000719;28;20176;-86
2023/12/28 02:17:45;;;;;;;3.77;1.30;;;8.00;99.90;;;;;;5001872;28;20188;-84
2023/12/28 02:20:12;;;;;;;2.73;1.00;;;8.00;99.90;;;;;;4996513;28;20179;-83
2023/12/28 02:22:40;;;;;;;2.87;1.37;;;8.10;99.90;;;;;;5004642;28;20604;-83
2023/12/28 02:25:13;;;;;;;3.13;1.27;;;8.10;99.90;;;;;;5003438;28;20175;-84
2023/12/28 02:27:42;;;;;;;4.00;1.10;;;8.20;99.90;;;;;;4997560;28;20171;-83
2023/12/28 02:30:09;;;;;;;2.07;1.10;;;8.20;99.90;;;;;;5005451;28;20641;-84
2023/12/28 02:32:38;;;;;;;2.10;1.10;;;8.20;99.90;;;;;;4996232;28;20661;-84
2023/12/28 02:35:16;;;;;;;1.90;1.23;;;8.20;99.90;;;;;;5005311;28;20195;-82
2023/12/28 02:37:45;;;;;;;2.17;1.20;;;8.30;99.90;;;;;;5003819;28;20225;-83
2023/12/28 02:40:14;;;;;;;1.52;1.10;;;8.30;99.90;;;;;;5005090;28;20188;-83
2023/12/28 02:42:40;;;;;;;2.30;1.03;;;8.30;99.90;;;;;;5002213;28;20676;-84
2023/12/28 02:45:06;;;;;;;2.77;1.13;;;8.30;99.90;;;;;;5004338;28;20192;-84
2023/12/28 02:47:32;;;;;;;3.83;1.10;;;8.20;99.90;;;;;;4995839;28;20186;-83
2023/12/28 02:49:59;;;;;;;4.13;1.20;;;8.20;99.90;;;;;;4995416;28;20611;-84
2023/12/28 02:52:25;;;;;;;1.87;1.20;;;8.20;99.90;;;;;;5006950;28;20614;-84
2023/12/28 02:54:50;;;;;;;1.13;0.90;;;8.30;99.90;;;;;;5005501;28;20188;-84
2023/12/28 02:57:18;;;;;;;2.60;1.27;;;8.20;99.90;;;;;;4995506;28;20241;-82
2023/12/28 02:59:46;;;;;;;3.07;1.20;;;8.30;99.90;;;;;;4996785;28;20183;-82
2023/12/28 03:02:12;;;;;;;3.15;1.27;;;8.30;99.90;;;;;;4999553;28;20211;-84
2023/12/28 03:04:38;;;;;;;3.67;1.30;;;8.30;99.90;;;;;;5015186;28;20183;-82
2023/12/28 03:07:07;;;;;;;3.30;1.08;;;8.30;99.90;;;;;;4995305;28;20195;-83
2023/12/28 03:09:34;;;;;;;3.50;1.10;;;8.30;99.90;;;;;;4994591;28;20188;-83
2023/12/28 03:12:00;;;;;;;2.40;1.20;;;8.20;99.90;;;;;;4995235;28;20618;-83
2023/12/28 03:14:26;;;;;;;2.47;1.10;;;8.30;99.90;;;;;;5002653;28;20190;-83
2023/12/28 03:16:52;;;;;;;5.70;1.25;;;8.30;99.90;;;;;;4997304;28;20196;-83
2023/12/28 03:19:18;;;;;;;2.80;1.20;;;8.30;99.90;;;;;;4995286;28;20499;-83
2023/12/28 03:21:44;;;;;;;1.53;1.20;;;8.20;99.90;;;;;;5003212;28;20285;-82
2023/12/28 03:24:09;;;;;;;3.15;1.30;;;8.20;99.90;;;;;;5002761;28;20200;-83
2023/12/28 03:26:39;;;;;;;2.60;1.42;;;8.20;99.90;;;;;;4995000;28;20217;-83
2023/12/28 03:29:06;;;;;;;2.67;1.13;;;8.20;99.90;;;;;;5003599;28;20538;-84
2023/12/28 03:31:32;;;;;;;3.67;1.60;;;8.20;99.90;;;;;;4994971;28;20199;-82
2023/12/28 03:33:58;;;;;;;1.70;1.10;;;8.20;99.90;;;;;;5028118;28;20183;-85
2023/12/28 03:36:24;;;;;;;6.30;1.60;;;8.20;99.90;;;;;;5006129;28;20183;-83
2023/12/28 03:38:50;;;;;;;2.08;1.30;;;8.20;99.90;;;;;;4997348;28;20187;-82
2023/12/28 03:41:19;;;;;;;4.77;1.47;;;8.20;99.90;;;;;;4994911;28;20362;-83
2023/12/28 03:43:46;;;;;;;2.35;1.38;;;8.20;99.90;;;;;;4995945;28;20255;-85
2023/12/28 03:46:12;;;;;;;2.03;1.30;;;8.20;99.90;;;;;;5002755;28;20192;-82
2023/12/28 03:48:38;;;;;;;3.43;1.33;;;8.20;99.90;;;;;;4994736;28;20534;-83
2023/12/28 03:51:04;;;;;;;3.37;1.43;;;8.20;99.90;;;;;;4995822;28;20188;-83
2023/12/28 03:53:33;;;;;;;2.05;1.33;;;8.20;99.90;;;;;;5008883;28;20194;-84
2023/12/28 03:55:59;;;;;;;3.10;1.40;;;8.20;99.90;;;;;;4996599;28;20187;-83
2023/12/28 03:58:25;;;;;;;1.98;1.30;;;8.20;99.90;;;;;;5002744;28;20186;-85
2023/12/28 04:00:52;;;;;;;4.20;1.57;;;8.30;99.90;;;;;;4996306;28;20531;-83
2023/12/28 04:03:17;;;;;;;2.23;1.40;;;8.30;99.90;;;;;;4999205;28;20187;-84
2023/12/28 04:05:43;;;;;;;2.00;1.40;;;8.30;99.90;;;;;;4997733;28;20195;-81
2023/12/28 04:08:13;;;;;;;1.33;1.20;;;8.20;99.90;;;;;;4995473;28;20194;-84
2023/12/28 04:10:39;;;;;;;3.87;1.40;;;8.20;99.90;;;;;;5002555;28;20191;-83
2023/12/28 04:13:05;;;;;;;2.60;1.70;;;8.30;99.90;;;;;;4995526;28;20546;-83
2023/12/28 04:15:32;;;;;;;4.55;1.90;;;8.30;99.90;;;;;;4994282;28;20237;-84
2023/12/28 04:17:57;;;;;;;2.33;1.37;;;8.30;99.90;;;;;;4993024;28;20176;-84
2023/12/28 04:20:23;;;;;;;6.30;1.60;;;8.20;99.90;;;;;;4995372;28;20619;-84
2023/12/28 04:22:49;;;;;;;3.13;1.70;;;8.30;99.90;;;;;;5001596;28;20685;-84
2023/12/28 04:25:18;;;;;;;4.57;1.30;;;8.20;99.90;;;;;;4998953;28;20180;-85
2023/12/28 04:27:44;;;;;;;2.03;1.40;;;8.20;99.90;;;;;;5001966;28;20198;-83
2023/12/28 04:30:12;;;;;;;3.17;1.73;;;8.20;99.90;;;;;;4994047;28;20528;-83
2023/12/28 04:32:39;;;;;;;5.28;1.88;;;8.20;99.90;;;;;;5003695;28;20210;-82
2023/12/28 04:35:05;;;;;;;6.33;1.97;;;8.20;99.90;;;;;;5002432;28;20246;-84
2023/12/28 04:37:32;;;;;;;4.57;1.63;;;8.20;99.90;;;;;;4993600;28;20183;-83
2023/12/28 04:39:58;;;;;;;4.93;1.50;;;8.20;99.90;;;;;;4993806;28;20179;-84
2023/12/28 04:42:24;;;;;;;3.30;1.47;;;8.20;99.90;;;;;;5000543;28;20213;-83
2023/12/28 04:44:50;;;;;;;2.57;1.60;;;8.10;99.90;;;;;;4997171;28;20179;-85
2023/12/28 04:47:18;;;;;;;3.13;1.60;;;8.20;99.90;;;;;;5000602;28;20271;-83
2023/12/28 04:49:44;;;;;;;5.15;1.52;;;8.20;99.90;;;;;;4994017;28;20190;-84
2023/12/28 04:52:09;;;;;;;2.60;1.10;;;8.20;99.90;;;;;;4999687;28;20187;-84
2023/12/28 04:54:35;;;;;;;2.60;1.30;;;8.20;99.90;;;;;;5004294;28;20179;-83
2023/12/28 04:57:01;;;;;;;2.30;1.47;;;8.10;99.90;;;;;;4994406;28;20209;-83
2023/12/28 04:59:27;;;;;;;7.07;1.70;;;8.10;99.90;;;;;;4995169;28;20187;-85
2023/12/28 05:01:53;;;;;;;3.05;1.48;;;8.10;99.90;;;;;;4994733;28;20220;-84
2023/12/28 05:04:19;;;;;;;3.57;1.40;;;8.10;99.90;;;;;;5000242;28;20187;-84
2023/12/28 05:06:44;;;;;;;3.20;1.30;;;8.10;99.90;;;;;;5001657;28;20218;-85
2023/12/28 05:09:10;;;;;;;2.15;1.50;;;8.00;99.90;;;;;;5001425;28;20184;-83
2023/12/28 05:11:36;;;;;;;3.03;1.63;;;8.10;99.90;;;;;;5001831;28;20645;-85
2023/12/28 05:14:02;;;;;;;2.83;1.57;;;8.00;99.90;;;;;;5001776;28;20273;-85
2023/12/28 05:16:28;;;;;;;4.07;1.40;;;7.90;99.90;;;;;;5001550;28;20269;-84
2023/12/28 05:18:53;;;;;;;1.70;1.48;;;7.80;99.90;;;;;;4997870;28;20202;-85
2023/12/28 05:21:20;;;;;;;2.20;1.33;;;7.80;99.90;;;;;;5012860;28;20558;-85
2023/12/28 05:23:46;;;;;;;2.20;1.52;;;7.70;99.90;;;;;;5011808;28;20227;-85
2023/12/28 05:26:12;;;;;;;2.43;1.70;;;7.60;99.90;;;;;;5001671;28;20541;-85
2023/12/28 05:28:38;;;;;;;3.20;1.65;;;7.60;99.90;;;;;;4993555;28;20187;-86
2023/12/28 05:31:05;;;;;;;3.03;1.90;;;7.50;99.90;;;;;;5007558;28;20269;-83
2023/12/28 05:33:31;;;;;;;5.00;1.65;;;7.40;99.90;;;;;;5009980;28;20186;-85
2023/12/28 05:35:56;;;;;;;2.27;1.30;;;7.40;99.90;;;;;;5000580;28;20524;-84
2023/12/28 05:38:22;;;;;;;2.33;1.60;;;7.40;99.90;;;;;;5003402;28;20191;-84
2023/12/28 05:40:48;;;;;;;3.20;1.70;;;7.30;99.90;;;;;;5013609;28;20300;-84
2023/12/28 05:43:14;;;;;;;4.37;1.60;;;7.30;99.90;;;;;;5000151;28;20222;-85
2023/12/28 05:45:39;;;;;;;2.30;1.40;;;7.30;99.90;;;;;;5001974;28;20203;-85
2023/12/28 05:48:05;;;;;;;4.17;1.80;;;7.30;99.90;;;;;;5003193;28;20186;-84
2023/12/28 05:50:31;;;;;;;3.83;1.63;;;7.30;99.90;;;;;;5005821;28;20186;-85
2023/12/28 05:52:57;;;;;;;3.47;2.00;;;7.30;99.90;;;;;;5009216;28;20241;-85
2023/12/28 05:55:23;;;;;;;2.50;1.43;;;7.20;99.90;;;;;;4999186;28;20192;-85
2023/12/28 05:57:50;;;;;;;2.93;1.53;;;7.20;99.90;;;;;;5004663;28;20183;-84
2023/12/28 06:00:16;;;;;;;5.10;1.90;;;7.20;99.90;;;;;;5005177;28;20188;-84
2023/12/28 06:02:42;;;;;;;3.30;1.77;;;7.20;99.90;;;;;;5005082;28;20310;-83
2023/12/28 06:05:07;;;;;;;2.60;1.60;;;7.20;99.90;;;;;;4996773;28;20271;-84
2023/12/28 06:07:34;;;;;;;5.73;1.80;;;7.20;99.90;;;;;;5000942;28;20187;-85
2023/12/28 06:10:00;;;;;;;3.07;1.90;;;7.20;99.90;;;;;;5012579;28;20752;-85
2023/12/28 06:12:25;;;;;;;5.43;1.73;;;7.10;99.90;;;;;;5002295;28;20277;-84
2023/12/28 06:14:51;;;;;;;2.87;1.60;;;7.20;99.90;;;;;;5002948;28;20619;-85
2023/12/28 06:17:19;;;;;;;2.70;1.53;;;7.20;99.90;;;;;;5016867;28;20196;-84
2023/12/28 06:19:45;;;;;;;2.93;1.50;;;7.10;99.90;;;;;;4999733;28;20176;-85
2023/12/28 06:22:11;;;;;;;2.67;1.73;;;7.10;99.90;;;;;;5019904;28;20562;-84
2023/12/28 06:24:40;;;;;;;3.93;1.80;;;7.10;99.90;;;;;;5000342;28;20215;-84
2023/12/28 06:27:06;;;;;;;3.00;1.77;;;7.10;99.90;;;;;;5012324;28;20216;-85
2023/12/28 06:29:32;;;;;;;3.20;1.57;;;7.10;99.90;;;;;;5006406;28;20179;-83
2023/12/28 06:31:58;;;;;;;2.80;1.60;;;7.20;99.90;;;;;;5005100;28;20499;-83
2023/12/28 06:34:23;;;;;;;2.87;1.60;;;7.10;99.90;;;;;;5012488;28;20555;-84
2023/12/28 06:36:49;;;;;;;4.07;1.60;;;7.20;99.90;;;;;;5007239;28;20187;-84
2023/12/28 06:39:15;;;;;;;1.53;1.43;;;7.20;99.90;;;;;;5004147;28;20227;-84
2023/12/28 06:41:41;;;;;;;3.23;1.53;;;7.20;99.90;;;;;;4993947;28;20302;-83
2023/12/28 06:44:07;;;;;;;5.07;1.87;;;7.20;99.90;;;;;;5003363;28;20180;-83
2023/12/28 06:46:32;;;;;;;2.10;1.40;;;7.20;99.90;;;;;;4994271;28;20576;-83
2023/12/28 06:48:58;;;;;;;4.13;1.43;;;7.30;99.90;;;;;;4994719;28;20254;-83
2023/12/28 06:51:25;;;;;;;2.63;1.50;;;7.30;99.90;;;;;;4995077;28;20179;-83
2023/12/28 06:53:51;;;;;;;6.00;2.07;;;7.40;99.90;;;;;;5011245;28;20240;-83
2023/12/28 06:56:17;;;;;;;2.43;1.40;;;7.50;99.90;;;;;;5012854;28;20561;-82
2023/12/28 06:58:43;;;;;;;2.33;1.40;;;7.50;99.90;;;;;;5010508;28;20187;-83
2023/12/28 07:01:09;;;;;;;3.00;1.50;;;7.50;99.90;;;;;;4995312;28;20273;-83
2023/12/28 07:03:35;;;;;;;2.27;1.40;;;7.50;99.90;;;;;;5011318;28;20507;-84
2023/12/28 07:06:01;;;;;;;2.40;1.60;;;7.60;99.90;;;;;;5004235;28;20193;-84
2023/12/28 07:08:27;;;;;;;4.73;2.17;;;7.50;99.90;;;;;;5000298;28;20183;-84
2023/12/28 07:10:53;;;;;;;3.87;1.50;;;7.50;99.90;;;;;;5006163;28;20175;-83
2023/12/28 07:13:18;;;;;;;5.13;1.80;;;7.50;99.90;;;;;;5002218;28;20279;-82
2023/12/28 07:15:44;;;;;;;3.40;1.60;;;7.50;99.90;;;;;;5001497;28;20202;-81
2023/12/28 07:18:10;;;;;;;2.10;1.50;;;7.40;99.90;;;;;;5013236;28;20187;-82
2023/12/28 07:20:35;;;;;;;3.73;1.80;;;7.40;99.90;;;;;;5014522;28;20194;-83
2023/12/28 07:23:01;;;;;;;7.83;1.90;;;7.30;99.90;;;;;;4998866;28;20325;-83
2023/12/28 07:25:27;;;;;;;2.63;1.50;;;7.40;99.90;;;;;;4998633;28;20283;-84
2023/12/28 07:27:53;;;;;;;5.00;1.63;;;7.30;99.90;;;;;;5004863;28;20184;-81
2023/12/28 07:30:19;;;;;;;5.10;1.70;;;7.30;99.90;;;;;;4993856;28;20599;-83
2023/12/28 07:32:45;;;;;;;3.10;1.80;;;7.40;99.90;;;;;;4994231;28;20215;-82
2023/12/28 07:35:11;;;;;;;3.97;1.67;;;7.40;99.90;;;;;;4997946;28;20188;-82
2023/12/28 07:37:37;;;;;;;3.67;1.57;;;7.40;99.90;;;;;;4993378;28;20188;-83
2023/12/28 07:40:04;;;;;;;3.43;1.77;;;7.40;99.90;;;;;;4994192;28;20275;-82
2023/12/28 07:42:30;;;;;;;3.50;1.60;;;7.40;99.90;;;;;;4998956;28;20218;-81
2023/12/28 07:44:56;;;;;;;3.07;1.70;;;7.40;99.90;;;;;;5002433;28;20180;-82
2023/12/28 07:47:22;;;;;;;2.27;1.43;;;7.40;99.90;;;;;;5001096;28;20191;-83
2023/12/28 07:49:47;;;;;;;3.17;1.60;;;7.50;99.90;;;;;;4997360;28;20618;-83
2023/12/28 07:52:13;;;;;;;2.20;1.80;;;7.50;99.90;;;;;;5000036;28;20198;-83
2023/12/28 07:54:39;;;;;;;3.93;1.80;;;7.60;99.90;;;;;;5029712;28;20215;-82
2023/12/28 07:57:05;;;;;;;3.40;1.50;;;7.60;99.90;;;;;;5001855;28;20629;-82
2023/12/28 07:59:31;;;;;;;4.43;2.13;;;7.60;99.90;;;;;;4994462;28;20187;-81
2023/12/28 08:01:57;;;;;;;2.67;1.50;;;7.70;99.90;;;;;;4996145;28;20295;-82
2023/12/28 08:04:23;;;;;;;2.10;1.50;;;7.70;99.90;;;;;;4999463;28;20237;-83
2023/12/28 08:06:48;;;;;;;1.90;1.50;;;7.70;99.90;;;;;;4998365;28;20188;-83
2023/12/28 08:09:14;;;;;;;3.53;1.80;;;7.70;99.90;;;;;;4994281;28;20198;-82
2023/12/28 08:11:40;;;;;;;3.57;1.77;;;7.70;99.90;;;;;;5001712;28;20188;-83
2023/12/28 08:14:06;;;;;;;3.20;1.60;;;7.70;99.90;;;;;;4994217;28;20198;-82
2023/12/28 08:16:32;;;;;;;2.10;1.30;;;7.70;99.90;;;;;;4996925;28;20192;-84
2023/12/28 08:18:57;;;;;;;2.67;1.70;;;7.70;99.90;;;;;;5006538;28;20180;-82
2023/12/28 08:21:23;;;;;;;3.07;1.50;;;7.70;99.90;;;;;;4994214;28;20219;-83
2023/12/28 08:23:49;;;;;;;3.53;1.97;;;7.70;99.90;;;;;;5004621;28;20322;-82
2023/12/28 08:26:15;;;;;;;2.80;1.50;;;7.70;99.90;;;;;;4993847;28;20183;-82
2023/12/28 08:28:41;;;;;;;3.70;1.63;;;7.60;99.90;;;;;;4999980;28;20183;-81
2023/12/28 08:31:08;;;;;;;4.10;1.50;;;7.60;99.90;;;;;;5010035;28;20615;-83
2023/12/28 08:33:35;;;;;;;2.80;1.60;;;7.60;99.90;;;;;;5005746;28;20194;-81
2023/12/28 08:36:03;;;;;;;2.90;1.80;;;7.60;99.90;;;;;;4994937;28;20192;-83
2023/12/28 08:38:29;;;;;;;2.13;1.40;;;7.50;99.90;;;;;;4999915;28;20534;-83
2023/12/28 08:40:55;;;;;;;3.20;1.60;;;7.50;99.90;;;;;;4995633;28;20611;-84
2023/12/28 08:43:21;;;;;;;2.23;1.60;;;7.50;99.90;;;;;;4996327;28;20227;-83
2023/12/28 08:45:46;;;;;;;1.70;1.40;;;7.60;99.90;;;;;;4993751;28;20183;-81
2023/12/28 08:48:12;;;;;;;4.57;1.70;;;7.50;99.90;;;;;;4995139;28;20206;-80
2023/12/28 08:50:38;;;;;;;2.60;1.77;;;7.50;99.90;;;;;;4997676;28;20188;-82
2023/12/28 08:53:04;;;;;;;3.63;1.63;;;7.50;99.90;;;;;;4999800;28;20623;-82
2023/12/28 08:55:30;;;;;;;2.40;1.27;;;7.50;99.90;;;;;;4997507;28;20217;-81
2023/12/28 08:57:57;;;;;;;2.37;1.57;;;7.60;99.90;;;;;;5003410;28;20693;-82
2023/12/28 09:00:22;;;;;;;3.77;1.73;;;7.70;99.90;;;;;;4994989;28;20180;-82
2023/12/28 09:02:48;;;;;;;4.17;1.83;;;7.70;99.90;;;;;;4993256;28;20245;-82
2023/12/28 09:05:14;;;;;;;3.80;1.57;;;7.70;99.90;;;;;;5000558;28;20638;-82
2023/12/28 09:07:43;;;;;;;2.43;1.37;;;7.70;99.90;;;;;;4993138;28;20186;-82
2023/12/28 09:10:12;;;;;;;2.13;1.70;;;7.80;99.90;;;;;;5001534;28;20187;-81
2023/12/28 09:12:40;;;;;;;4.00;1.80;;;7.80;99.90;;;;;;5007122;28;20183;-83
2023/12/28 09:15:06;;;;;;;2.40;1.30;;;7.90;99.90;;;;;;5004795;28;20646;-81
2023/12/28 09:17:33;;;;;;;2.77;1.57;;;8.00;99.90;;;;;;5007570;28;20302;-83
2023/12/28 09:19:58;;;;;;;2.73;1.60;;;8.00;99.90;;;;;;5015354;28;20676;-82
2023/12/28 09:22:25;;;;;;;3.00;1.50;;;8.00;99.90;;;;;;5008634;28;20263;-83
2023/12/28 09:24:51;;;;;;;2.50;1.30;;;8.10;99.90;;;;;;5007064;28;20274;-90
2023/12/28 09:27:17;;;;;;;2.33;1.30;;;8.10;99.90;;;;;;5007282;28;20214;-82
2023/12/28 09:29:42;;;;;;;3.77;1.83;;;8.10;99.90;;;;;;5011315;28;20642;-84
2023/12/28 09:32:08;;;;;;;3.23;1.40;;;8.20;99.90;;;;;;5017415;28;20226;-82
2023/12/28 09:34:34;;;;;;;2.27;1.30;;;8.20;99.90;;;;;;5009717;28;20333;-83
2023/12/28 09:37:00;;;;;;;3.47;1.53;;;8.30;99.90;;;;;;5007844;28;20639;-83
2023/12/28 09:39:26;;;;;;;2.10;1.70;;;8.30;99.90;;;;;;5008572;28;20236;-82
2023/12/28 09:42:09;;;;;;;3.67;1.53;;;8.30;99.90;;;;;;5002955;28;20661;-81
2023/12/28 09:44:40;;;;;;;2.13;1.33;;;8.40;99.90;;;;;;4999360;28;20172;-81
2023/12/28 09:47:06;;;;;;;2.13;1.50;;;8.40;99.90;;;;;;5012508;28;20183;-89
2023/12/28 09:49:33;;;;;;;5.37;1.73;;;8.40;99.90;;;;;;5013911;28;20175;-83
2023/12/28 09:52:01;;;;;;;2.07;1.50;;;8.40;99.90;;;;;;5000229;28;20176;-81
2023/12/28 09:54:27;;;;;;;4.30;1.63;;;8.30;99.90;;;;;;5009857;28;20282;-83
2023/12/28 09:56:53;;;;;;;2.70;1.30;;;8.30;99.90;;;;;;5006018;28;20265;-80
2023/12/28 09:59:20;;;;;;;4.47;1.40;;;8.40;99.90;;;;;;5001886;28;20220;-85
2023/12/28 10:01:47;;;;;;;5.07;1.60;;;8.50;99.90;;;;;;4998631;28;20219;-82
2023/12/28 10:04:15;;;;;;;3.53;1.67;;;8.50;99.90;;;;;;4998069;28;20187;-83
2023/12/28 10:06:41;;;;;;;4.80;1.57;;;8.60;99.90;;;;;;4994290;28;20186;-83
2023/12/28 10:09:07;;;;;;;4.55;1.40;;;8.60;99.90;;;;;;5000343;28;20188;-84
2023/12/28 10:11:34;;;;;;;4.77;1.70;;;8.70;99.90;;;;;;5001299;28;20326;-84
2023/12/28 10:14:00;;;;;;;3.25;1.60;;;8.90;99.90;;;;;;5004614;28;20682;-81
2023/12/28 10:16:26;;;;;;;2.23;1.50;;;8.90;99.90;;;;;;4999146;28;20187;-80
2023/12/28 10:18:52;;;;;;;3.13;1.67;;;9.00;99.90;;;;;;5004673;28;20206;-82
2023/12/28 10:21:18;;;;;;;2.72;1.38;;;9.20;99.90;;;;;;5005238;28;20222;-81
2023/12/28 10:23:44;;;;;;;5.53;1.80;;;9.30;99.90;;;;;;5008988;28;20313;-81
2023/12/28 10:26:10;;;;;;;4.43;1.73;;;9.40;99.90;;;;;;5006192;28;20179;-82
2023/12/28 10:28:39;;;;;;;2.50;1.30;;;9.40;99.90;;;;;;4995980;28;20191;-82
2023/12/28 10:31:05;;;;;;;3.08;1.50;;;9.30;99.90;;;;;;4996854;28;21642;-83
2023/12/28 10:33:38;;;;;;;2.10;1.50;;;9.40;99.90;;;;;;4995944;28;20238;-83
2023/12/28 10:36:07;;;;;;;6.00;1.63;;;9.40;99.90;;;;;;5001785;28;20191;-81
2023/12/28 10:38:38;;;;;;;3.40;1.35;;;9.40;99.90;;;;;;5003225;28;20202;-82
2023/12/28 10:41:07;;;;;;;2.38;1.58;;;9.40;99.90;;;;;;5004112;28;20652;-82
2023/12/28 10:43:43;;;;;;;2.38;1.20;;;9.30;99.90;;;;;;4997018;28;20661;-81
2023/12/28 10:46:09;;;;;;;2.92;1.50;;;9.30;99.90;;;;;;5009817;28;20567;-82
2023/12/28 10:48:42;;;;;;;4.65;1.40;;;9.20;99.90;;;;;;5003863;28;20195;-82
2023/12/28 10:51:10;;;;;;;2.45;1.33;;;9.30;99.90;;;;;;5008462;28;20265;-81
2023/12/28 10:53:54;;;;;;;3.50;1.50;;;9.40;99.90;;;;;;5016495;28;20184;-82
2023/12/28 10:56:22;;;;;;;6.88;1.50;;;9.40;99.90;;;;;;5002036;28;20230;-81
2023/12/28 10:59:27;;;;;;;3.72;1.40;;;9.50;99.90;;;;;;5002751;28;20275;-81
2023/12/28 11:01:56;;;;;;;3.05;1.50;;;9.50;99.90;;;;;;5027958;28;20230;-82
2023/12/28 11:04:41;;;;;;;2.47;1.42;;;9.50;99.90;;;;;;4995478;28;20267;-81
2023/12/28 11:07:09;;;;;;;2.28;1.40;;;9.50;99.90;;;;;;5000931;28;20284;-81
2023/12/28 11:09:36;;;;;;;3.40;2.03;;;9.60;99.90;;;;;;4996622;28;20176;-81
2023/12/28 11:12:07;;;;;;;3.70;1.40;;;9.60;99.90;;;;;;5007345;28;20187;-82
2023/12/28 11:14:35;;;;;;;4.65;1.75;;;9.70;99.90;;;;;;5005760;28;20179;-83
2023/12/28 11:17:01;;;;;;;3.53;1.45;;;9.80;99.90;;;;;;4999011;28;20575;-81
2023/12/28 11:19:32;;;;;;;5.68;1.50;;;9.90;99.90;;;;;;5005742;28;20179;-81
2023/12/28 11:21:59;;;;;;;3.53;1.30;;;9.90;99.90;;;;;;5011103;28;20226;-80
2023/12/28 11:24:30;;;;;;;3.88;1.50;;;10.00;99.90;;;;;;5009301;28;20221;-81
2023/12/28 11:26:57;;;;;;;7.00;1.60;;;9.90;99.90;;;;;;5002067;28;20627;-82
2023/12/28 11:29:25;;;;;;;2.78;1.25;;;9.80;99.90;;;;;;4999328;28;20187;-83
2023/12/28 11:31:52;;;;;;;4.65;1.45;;;9.90;99.90;;;;;;5002557;28;20179;-81
2023/12/28 11:34:18;;;;;;;5.20;1.45;;;10.00;99.90;;;;;;4995069;28;20622;-82
2023/12/28 11:36:49;;;;;;;6.55;1.75;;;10.00;99.90;;;;;;5000026;28;20183;-82
2023/12/28 11:39:20;;;;;;;5.60;1.52;;;10.00;99.90;;;;;;4996245;28;20180;-83
2023/12/28 11:41:46;;;;;;;7.22;2.00;;;10.00;99.90;;;;;;5010513;28;20298;-82
2023/12/28 11:44:12;;;;;;;7.60;1.48;;;10.10;99.90;;;;;;4995891;28;20180;-82
2023/12/28 11:46:37;;;;;;;8.20;1.60;;;10.20;99.90;;;;;;4995987;28;20176;-81
2023/12/28 11:49:10;;;;;;;8.25;1.58;;;10.20;99.90;;;;;;5004560;28;20183;-82
2023/12/28 11:51:38;;;;;;;4.03;1.48;;;10.20;99.90;;;;;;4995826;28;20599;-82
2023/12/28 11:54:04;;;;;;;5.00;1.40;;;10.20;99.90;;;;;;4995867;28;20536;-82
2023/12/28 11:56:32;;;;;;;5.82;1.55;;;10.30;99.90;;;;;;4994261;28;20183;-82
2023/12/28 11:58:58;;;;;;;5.53;1.42;;;10.40;99.90;;;;;;4994339;28;20186;-80
2023/12/28 12:01:24;;;;;;;5.95;1.60;;;10.30;99.90;;;;;;4994474;28;20226;-81
2023/12/28 12:03:50;;;;;;;4.57;1.52;;;10.20;99.90;;;;;;4994698;28;20271;-81
2023/12/28 12:06:16;;;;;;;7.32;1.83;;;10.20;99.90;;;;;;4994230;28;20271;-80
2023/12/28 12:08:49;;;;;;;5.07;1.40;;;10.20;99.90;;;;;;4994332;28;20510;-81
2023/12/28 12:11:18;;;;;;;7.15;1.92;;;10.20;99.90;;;;;;4998345;28;20179;-81
2023/12/28 12:13:44;;;;;;;6.13;1.52;;;10.20;99.90;;;;;;4998915;28;20187;-83
2023/12/28 12:16:10;;;;;;;5.68;1.33;;;10.10;99.90;;;;;;4995415;28;20266;-80
2023/12/28 12:18:35;;;;;;;5.38;1.48;;;10.20;99.90;;;;;;4995268;28;20184;-81
2023/12/28 12:21:02;;;;;;;4.15;1.63;;;10.10;99.90;;;;;;4996072;28;20246;-80
2023/12/28 12:23:28;;;;;;;8.07;1.60;;;10.20;99.90;;;;;;5001024;28;20298;-81
2023/12/28 12:25:55;;;;;;;7.07;1.58;;;10.20;99.90;;;;;;4993760;28;20626;-80
2023/12/28 12:28:21;;;;;;;4.80;1.58;;;10.20;99.90;;;;;;4994933;28;20214;-81
2023/12/28 12:30:56;;;;;;;8.00;1.83;;;10.20;99.90;;;;;;5003385;28;20179;-80
2023/12/28 12:33:23;;;;;;;6.60;1.33;;;10.30;99.90;;;;;;4993928;28;20190;-81
2023/12/28 12:35:50;;;;;;;5.30;1.63;;;10.30;99.90;;;;;;4993787;28;20176;-81
2023/12/28 12:38:16;;;;;;;5.43;1.58;;;10.30;99.90;;;;;;4993967;28;20506;-79
2023/12/28 12:40:43;;;;;;;9.10;1.85;;;10.30;99.90;;;;;;5001018;28;20627;-80
2023/12/28 12:43:11;;;;;;;3.65;1.23;;;10.30;99.90;;;;;;5001628;28;20226;-81
2023/12/28 12:45:37;;;;;;;4.60;1.38;;;10.30;99.90;;;;;;4997896;28;20745;-83
2023/12/28 12:48:04;;;;;;;6.53;1.50;;;10.30;99.90;;;;;;4995143;28;20271;-81
2023/12/28 12:50:32;;;;;;;9.90;2.20;;;10.30;99.90;;;;;;4995014;28;20183;-82
2023/12/28 12:53:00;;;;;;;6.97;1.63;;;10.40;99.90;;;;;;5004766;28;20171;-81